»·PEaware :: N717TS KAST-KBFI

N717TS :: KAST-KBFI

FLIGHT INFORMATION

Flight Status: Arrived
Operator: Privately registered:
United States
More flights under this callsign
Pilot: Ty S. (2873)
Aircraft: Diamond DA-62
(DA62)
More flights by this aircraft type
Origin: KAST Astoria Regl
United States
Destination: KBFI Boeing Field/King Co Intl
United States
More flights between these airports :: More routes between these airports
Route: AST3 AST OLM
File this flight plan on PilotEdge
Remarks:
Altitude:
(Current/Filed)
9,000ft
Speed:
(Current/Filed)
180kts
Departed: 22-Jan-20 07:09 PM
Arrived: 22-Jan-20 07:55 PM
Distance/Time
Traveled:
105nm/0:46
Distance/Time
To Go:
Arrived

Flight Plot

Page will automatically refresh every two minutes.

Flight plan parsing failed; only flown route is shown


Map Options




Map Legend


Flown Route
Filed Route
Departure Airport
Arrival Airport
Navaid (VOR, NDB)
Fix

Horizontal Profiles

Position Reports

Time Latitude Longitude Heading Altitude Ground
Speed
22-Jan-20 18:55 46.156090 -123.880844 238 19ft 0kts
22-Jan-20 18:56 46.156090 -123.880844 238 19ft 0kts
22-Jan-20 18:57 46.156090 -123.880844 238 19ft 0kts
22-Jan-20 18:58 46.156090 -123.880844 238 19ft 0kts
22-Jan-20 18:59 46.156090 -123.880844 238 19ft 0kts
22-Jan-20 19:00 46.156090 -123.880844 238 19ft 0kts
22-Jan-20 19:01 46.156090 -123.880844 238 19ft 0kts
22-Jan-20 19:02 46.156090 -123.880844 238 19ft 0kts
22-Jan-20 19:03 46.156090 -123.880844 238 19ft 0kts
22-Jan-20 19:04 46.156591 -123.881404 335 19ft 6kts
22-Jan-20 19:05 46.158284 -123.877860 84 19ft 17kts
22-Jan-20 19:06 46.157835 -123.871287 92 19ft 18kts
22-Jan-20 19:07 46.157931 -123.867476 52 19ft 6kts
22-Jan-20 19:08 46.158564 -123.870708 273 19ft 61kts
22-Jan-20 19:09 46.165549 -123.904084 307 703ft 114kts
22-Jan-20 19:10 46.190428 -123.932948 314 1966ft 115kts
22-Jan-20 19:11 46.185637 -123.950579 149 3174ft 90kts
22-Jan-20 19:12 46.170619 -123.918141 127 4357ft 106kts
22-Jan-20 19:13 46.168431 -123.875258 54 5538ft 132kts
22-Jan-20 19:14 46.196304 -123.839450 39 6710ft 136kts
22-Jan-20 19:15 46.226111 -123.804112 39 7858ft 140kts
22-Jan-20 19:17 46.256412 -123.768034 37 8947ft 149kts
22-Jan-20 19:18 46.295032 -123.722134 38 8995ft 200kts
22-Jan-20 19:19 46.339200 -123.669404 37 8993ft 209kts
22-Jan-20 19:20 46.384108 -123.615684 37 8989ft 211kts
22-Jan-20 19:21 46.429338 -123.561524 37 8994ft 210kts
22-Jan-20 19:22 46.474582 -123.507161 37 8999ft 211kts
22-Jan-20 19:23 46.519535 -123.453073 37 9002ft 210kts
22-Jan-20 19:24 46.564544 -123.398931 38 9007ft 210kts
22-Jan-20 19:25 46.609588 -123.344487 39 9009ft 210kts
22-Jan-20 19:26 46.654319 -123.290267 38 9009ft 209kts
22-Jan-20 19:27 46.699029 -123.235966 38 9008ft 209kts
22-Jan-20 19:28 46.743606 -123.181684 38 9006ft 209kts
22-Jan-20 19:29 46.788249 -123.127234 38 9002ft 209kts
22-Jan-20 19:30 46.832749 -123.072797 38 8997ft 209kts
22-Jan-20 19:31 46.877203 -123.018310 37 8993ft 209kts
22-Jan-20 19:32 46.921668 -122.963661 36 8991ft 208kts
22-Jan-20 19:33 46.966030 -122.909068 35 8991ft 208kts
22-Jan-20 19:34 47.012580 -122.858701 29 8993ft 207kts
22-Jan-20 19:35 47.058862 -122.809487 29 8899ft 206kts
22-Jan-20 19:35 47.097135 -122.768772 29 8070ft 201kts
22-Jan-20 19:37 47.148794 -122.713587 31 6912ft 197kts
22-Jan-20 19:38 47.192834 -122.666393 34 5907ft 194kts
22-Jan-20 19:38 47.228860 -122.627725 36 5069ft 190kts
22-Jan-20 19:39 47.270697 -122.582776 38 4061ft 182kts
22-Jan-20 19:41 47.317083 -122.533029 32 3004ft 169kts
22-Jan-20 19:41 47.353199 -122.518830 14 2988ft 157kts
22-Jan-20 19:42 47.395300 -122.503521 11 2990ft 155kts
22-Jan-20 19:43 47.438216 -122.507196 354 2996ft 154kts
22-Jan-20 19:44 47.483109 -122.512174 354 3000ft 166kts
22-Jan-20 19:45 47.529890 -122.517358 354 2530ft 171kts
22-Jan-20 19:46 47.575061 -122.522566 354 2201ft 159kts
22-Jan-20 19:48 47.629036 -122.528642 354 2200ft 170kts
22-Jan-20 19:48 47.654928 -122.491990 64 2201ft 163kts
22-Jan-20 19:49 47.656850 -122.433440 123 2205ft 152kts
22-Jan-20 19:50 47.630583 -122.386006 151 2011ft 155kts
22-Jan-20 19:51 47.598989 -122.360760 147 1361ft 104kts
22-Jan-20 19:52 47.573701 -122.339610 149 800ft 106kts
22-Jan-20 19:53 47.549037 -122.318718 149 241ft 84kts
22-Jan-20 19:54 47.531688 -122.303929 149 22ft 36kts
22-Jan-20 19:55 47.531300 -122.299720 258 22ft 0kts
22-Jan-20 19:56 47.531300 -122.299720 258 22ft 0kts

Navigation Log

Ident Type
Flight plan parsing failed, navigation log unavailable